sensor_id;sensor_type;location;lat;lon;timestamp;pressure;altitude;pressure_sealevel;temperature;humidity
30724;BME280;17473;52.286;20.930;2022-07-17T00:02:13;100587.13;;;14.91;82.46
30724;BME280;17473;52.286;20.930;2022-07-17T00:04:41;100592.56;;;14.99;82.85
30724;BME280;17473;52.286;20.930;2022-07-17T00:07:08;100592.66;;;15.03;82.07
30724;BME280;17473;52.286;20.930;2022-07-17T00:09:35;100592.81;;;15.11;81.82
30724;BME280;17473;52.286;20.930;2022-07-17T00:12:02;100591.97;;;15.14;81.26
30724;BME280;17473;52.286;20.930;2022-07-17T00:14:29;100592.03;;;15.18;81.37
30724;BME280;17473;52.286;20.930;2022-07-17T00:16:56;100591.88;;;15.11;81.54
30724;BME280;17473;52.286;20.930;2022-07-17T00:19:25;100595.31;;;15.03;82.18
30724;BME280;17473;52.286;20.930;2022-07-17T00:21:52;100608.81;;;15.14;81.36
30724;BME280;17473;52.286;20.930;2022-07-17T00:24:20;100606.91;;;15.07;81.22
30724;BME280;17473;52.286;20.930;2022-07-17T00:26:48;100610.56;;;15.14;81.29
30724;BME280;17473;52.286;20.930;2022-07-17T00:29:16;100602.41;;;15.03;82.00
30724;BME280;17473;52.286;20.930;2022-07-17T00:31:45;100619.22;;;15.02;82.15
30724;BME280;17473;52.286;20.930;2022-07-17T00:34:12;100621.88;;;15.00;82.77
30724;BME280;17473;52.286;20.930;2022-07-17T00:36:39;100611.31;;;15.05;82.21
30724;BME280;17473;52.286;20.930;2022-07-17T00:39:06;100620.25;;;15.09;81.88
30724;BME280;17473;52.286;20.930;2022-07-17T00:41:34;100620.91;;;14.97;82.91
30724;BME280;17473;52.286;20.930;2022-07-17T00:44:09;100631.59;;;15.00;82.76
30724;BME280;17473;52.286;20.930;2022-07-17T00:46:39;100619.22;;;15.02;82.82
30724;BME280;17473;52.286;20.930;2022-07-17T00:49:08;100611.50;;;15.14;81.77
30724;BME280;17473;52.286;20.930;2022-07-17T00:51:36;100621.00;;;15.03;82.84
30724;BME280;17473;52.286;20.930;2022-07-17T00:54:04;100623.72;;;15.06;82.89
30724;BME280;17473;52.286;20.930;2022-07-17T00:56:37;100628.00;;;14.98;82.41
30724;BME280;17473;52.286;20.930;2022-07-17T00:59:04;100634.13;;;14.94;82.65
30724;BME280;17473;52.286;20.930;2022-07-17T01:01:33;100635.94;;;14.95;82.49
30724;BME280;17473;52.286;20.930;2022-07-17T01:04:00;100638.69;;;14.99;82.26
30724;BME280;17473;52.286;20.930;2022-07-17T01:06:27;100644.88;;;15.00;81.90
30724;BME280;17473;52.286;20.930;2022-07-17T01:08:54;100648.28;;;14.93;81.78
30724;BME280;17473;52.286;20.930;2022-07-17T01:11:21;100653.69;;;14.97;81.50
30724;BME280;17473;52.286;20.930;2022-07-17T01:13:48;100651.03;;;14.96;82.08
30724;BME280;17473;52.286;20.930;2022-07-17T01:16:16;100649.78;;;14.78;82.97
30724;BME280;17473;52.286;20.930;2022-07-17T01:18:43;100650.34;;;14.65;83.03
30724;BME280;17473;52.286;20.930;2022-07-17T01:21:10;100650.34;;;14.65;83.54
30724;BME280;17473;52.286;20.930;2022-07-17T01:23:37;100654.78;;;14.66;82.98
30724;BME280;17473;52.286;20.930;2022-07-17T01:26:04;100653.31;;;14.79;82.51
30724;BME280;17473;52.286;20.930;2022-07-17T01:28:31;100649.53;;;14.67;83.15
30724;BME280;17473;52.286;20.930;2022-07-17T01:31:01;100653.81;;;14.61;83.29
30724;BME280;17473;52.286;20.930;2022-07-17T01:33:30;100654.78;;;14.66;83.39
30724;BME280;17473;52.286;20.930;2022-07-17T01:35:57;100654.66;;;14.60;83.21
30724;BME280;17473;52.286;20.930;2022-07-17T01:38:24;100638.38;;;14.44;83.78
30724;BME280;17473;52.286;20.930;2022-07-17T01:40:51;100644.47;;;14.38;84.10
30724;BME280;17473;52.286;20.930;2022-07-17T01:43:20;100655.97;;;14.39;83.79
30724;BME280;17473;52.286;20.930;2022-07-17T01:45:48;100661.38;;;14.42;83.98
30724;BME280;17473;52.286;20.930;2022-07-17T01:48:28;100664.72;;;14.35;84.44
30724;BME280;17473;52.286;20.930;2022-07-17T01:50:56;100671.03;;;14.38;84.26
30724;BME280;17473;52.286;20.930;2022-07-17T01:53:24;100668.59;;;14.49;83.70
30724;BME280;17473;52.286;20.930;2022-07-17T01:55:51;100663.81;;;14.33;84.23
30724;BME280;17473;52.286;20.930;2022-07-17T01:58:18;100671.63;;;14.27;84.69
30724;BME280;17473;52.286;20.930;2022-07-17T02:00:45;100674.16;;;14.22;85.18
30724;BME280;17473;52.286;20.930;2022-07-17T02:03:12;100673.06;;;14.12;85.63
30724;BME280;17473;52.286;20.930;2022-07-17T02:05:39;100678.34;;;14.11;85.51
30724;BME280;17473;52.286;20.930;2022-07-17T02:08:06;100682.09;;;14.19;85.27
30724;BME280;17473;52.286;20.930;2022-07-17T02:10:33;100685.81;;;14.27;84.97
30724;BME280;17473;52.286;20.930;2022-07-17T02:13:00;100681.38;;;14.28;85.28
30724;BME280;17473;52.286;20.930;2022-07-17T02:15:28;100683.69;;;14.12;86.17
30724;BME280;17473;52.286;20.930;2022-07-17T02:17:55;100683.81;;;14.18;86.05
30724;BME280;17473;52.286;20.930;2022-07-17T02:20:23;100672.44;;;14.22;85.49
30724;BME280;17473;52.286;20.930;2022-07-17T02:22:50;100688.25;;;14.18;86.15
30724;BME280;17473;52.286;20.930;2022-07-17T02:25:17;100688.06;;;14.10;86.78
30724;BME280;17473;52.286;20.930;2022-07-17T02:27:44;100683.59;;;14.09;86.85
30724;BME280;17473;52.286;20.930;2022-07-17T02:30:15;100682.63;;;14.05;87.08
30724;BME280;17473;52.286;20.930;2022-07-17T02:32:43;100684.31;;;14.02;87.19
30724;BME280;17473;52.286;20.930;2022-07-17T02:35:11;100684.41;;;14.05;86.72
30724;BME280;17473;52.286;20.930;2022-07-17T02:37:39;100690.78;;;14.13;86.05
30724;BME280;17473;52.286;20.930;2022-07-17T02:40:09;100681.25;;;14.21;85.30
30724;BME280;17473;52.286;20.930;2022-07-17T02:42:36;100684.75;;;14.19;85.10
30724;BME280;17473;52.286;20.930;2022-07-17T02:45:03;100677.50;;;14.12;86.14
30724;BME280;17473;52.286;20.930;2022-07-17T02:47:34;100690.97;;;14.21;85.62
30724;BME280;17473;52.286;20.930;2022-07-17T02:50:05;100693.63;;;14.21;85.76
30724;BME280;17473;52.286;20.930;2022-07-17T02:52:32;100692.06;;;14.29;85.11
30724;BME280;17473;52.286;20.930;2022-07-17T02:55:00;100688.38;;;14.22;85.03
30724;BME280;17473;52.286;20.930;2022-07-17T02:57:27;100686.56;;;14.21;85.27
30724;BME280;17473;52.286;20.930;2022-07-17T02:59:54;100695.25;;;14.14;86.19
30724;BME280;17473;52.286;20.930;2022-07-17T03:02:21;100693.56;;;14.18;86.50
30724;BME280;17473;52.286;20.930;2022-07-17T03:04:48;100699.88;;;14.23;86.25
30724;BME280;17473;52.286;20.930;2022-07-17T03:07:15;100696.25;;;14.19;86.93
30724;BME280;17473;52.286;20.930;2022-07-17T03:09:42;100699.88;;;14.23;86.86
30724;BME280;17473;52.286;20.930;2022-07-17T03:12:09;100709.97;;;14.38;86.04
30724;BME280;17473;52.286;20.930;2022-07-17T03:14:36;100716.31;;;14.45;85.21
30724;BME280;17473;52.286;20.930;2022-07-17T03:17:03;100719.09;;;14.49;85.84
30724;BME280;17473;52.286;20.930;2022-07-17T03:19:31;100710.91;;;14.40;86.40
30724;BME280;17473;52.286;20.930;2022-07-17T03:21:58;100721.41;;;14.34;87.05
30724;BME280;17473;52.286;20.930;2022-07-17T03:24:25;100725.06;;;14.40;87.07
30724;BME280;17473;52.286;20.930;2022-07-17T03:26:52;100723.25;;;14.38;86.83
30724;BME280;17473;52.286;20.930;2022-07-17T03:29:19;100732.59;;;14.59;85.99
30724;BME280;17473;52.286;20.930;2022-07-17T03:31:47;100732.63;;;14.62;85.88
30724;BME280;17473;52.286;20.930;2022-07-17T03:34:14;100741.66;;;14.67;86.25
30724;BME280;17473;52.286;20.930;2022-07-17T03:36:42;100739.25;;;14.79;85.45
30724;BME280;17473;52.286;20.930;2022-07-17T03:39:09;100733.91;;;14.76;85.67
30724;BME280;17473;52.286;20.930;2022-07-17T03:41:37;100737.78;;;14.92;85.01
30724;BME280;17473;52.286;20.930;2022-07-17T03:44:04;100735.16;;;14.94;84.37
30724;BME280;17473;52.286;20.930;2022-07-17T03:46:32;100729.81;;;14.92;84.80
30724;BME280;17473;52.286;20.930;2022-07-17T03:48:59;100744.84;;;14.92;85.28
30724;BME280;17473;52.286;20.930;2022-07-17T03:51:26;100744.69;;;14.84;85.72
30724;BME280;17473;52.286;20.930;2022-07-17T03:53:54;100738.00;;;15.01;85.19
30724;BME280;17473;52.286;20.930;2022-07-17T03:56:21;100730.16;;;15.09;84.44
30724;BME280;17473;52.286;20.930;2022-07-17T03:58:49;100733.56;;;15.46;83.07
30724;BME280;17473;52.286;20.930;2022-07-17T04:01:16;100736.41;;;15.57;81.89
30724;BME280;17473;52.286;20.930;2022-07-17T04:03:43;100734.34;;;15.41;82.62
30724;BME280;17473;52.286;20.930;2022-07-17T04:06:10;100735.00;;;15.29;83.26
30724;BME280;17473;52.286;20.930;2022-07-17T04:08:37;100745.66;;;15.30;83.34
30724;BME280;17473;52.286;20.930;2022-07-17T04:11:04;100752.69;;;15.27;83.58
30724;BME280;17473;52.286;20.930;2022-07-17T04:13:36;100748.88;;;15.15;84.12
30724;BME280;17473;52.286;20.930;2022-07-17T04:16:04;100747.25;;;15.22;83.92
30724;BME280;17473;52.286;20.930;2022-07-17T04:18:34;100749.09;;;15.71;81.82
30724;BME280;17473;52.286;20.930;2022-07-17T04:21:06;100752.66;;;15.71;81.06
30724;BME280;17473;52.286;20.930;2022-07-17T04:23:35;100760.41;;;15.59;82.27
30724;BME280;17473;52.286;20.930;2022-07-17T04:26:03;100749.69;;;15.54;82.31
30724;BME280;17473;52.286;20.930;2022-07-17T04:28:37;100759.75;;;15.71;82.03
30724;BME280;17473;52.286;20.930;2022-07-17T04:31:04;100764.38;;;15.81;81.03
30724;BME280;17473;52.286;20.930;2022-07-17T04:33:31;100761.91;;;15.90;80.75
30724;BME280;17473;52.286;20.930;2022-07-17T04:35:59;100770.97;;;16.02;80.04
30724;BME280;17473;52.286;20.930;2022-07-17T04:38:26;100759.69;;;16.17;79.46
30724;BME280;17473;52.286;20.930;2022-07-17T04:40:53;100768.28;;;16.54;78.38
30724;BME280;17473;52.286;20.930;2022-07-17T04:43:20;100772.41;;;18.61;69.43
30724;BME280;17473;52.286;20.930;2022-07-17T04:45:47;100772.50;;;18.73;67.96
30724;BME280;17473;52.286;20.930;2022-07-17T04:48:14;100755.47;;;18.60;67.85
30724;BME280;17473;52.286;20.930;2022-07-17T04:50:41;100772.03;;;19.70;64.89
30724;BME280;17473;52.286;20.930;2022-07-17T04:53:08;100754.31;;;22.27;55.67
30724;BME280;17473;52.286;20.930;2022-07-17T04:55:35;100766.75;;;25.00;47.35
30724;BME280;17473;52.286;20.930;2022-07-17T04:58:03;100772.06;;;24.53;47.74
30724;BME280;17473;52.286;20.930;2022-07-17T05:00:30;100778.53;;;23.18;51.57
30724;BME280;17473;52.286;20.930;2022-07-17T05:02:57;100783.13;;;25.35;46.01
30724;BME280;17473;52.286;20.930;2022-07-17T05:05:25;100779.50;;;23.82;48.95
30724;BME280;17473;52.286;20.930;2022-07-17T05:07:52;100785.00;;;23.03;51.38
30724;BME280;17473;52.286;20.930;2022-07-17T05:10:20;100789.75;;;21.54;55.98
30724;BME280;17473;52.286;20.930;2022-07-17T05:12:53;100781.06;;;20.73;58.67
30724;BME280;17473;52.286;20.930;2022-07-17T05:15:20;100791.72;;;21.09;58.02
30724;BME280;17473;52.286;20.930;2022-07-17T05:17:47;100791.84;;;24.02;49.53
30724;BME280;17473;52.286;20.930;2022-07-17T05:20:14;100786.44;;;26.64;43.24
30724;BME280;17473;52.286;20.930;2022-07-17T05:22:41;100790.47;;;26.47;42.71
30724;BME280;17473;52.286;20.930;2022-07-17T05:25:09;100786.50;;;26.61;42.40
30724;BME280;17473;52.286;20.930;2022-07-17T05:27:36;100782.94;;;25.86;43.57
30724;BME280;17473;52.286;20.930;2022-07-17T05:30:03;100793.84;;;24.94;45.48
30724;BME280;17473;52.286;20.930;2022-07-17T05:32:31;100800.69;;;27.37;40.70
30724;BME280;17473;52.286;20.930;2022-07-17T05:34:58;100794.03;;;28.07;39.36
30724;BME280;17473;52.286;20.930;2022-07-17T05:37:25;100801.16;;;29.88;36.19
30724;BME280;17473;52.286;20.930;2022-07-17T05:39:52;100806.25;;;30.20;35.31
30724;BME280;17473;52.286;20.930;2022-07-17T05:42:19;100797.16;;;31.45;33.52
30724;BME280;17473;52.286;20.930;2022-07-17T05:44:46;100799.13;;;32.72;31.63
30724;BME280;17473;52.286;20.930;2022-07-17T05:47:13;100810.44;;;32.29;32.23
30724;BME280;17473;52.286;20.930;2022-07-17T05:49:40;100807.22;;;29.24;36.73
30724;BME280;17473;52.286;20.930;2022-07-17T05:52:07;100809.78;;;28.24;38.54
30724;BME280;17473;52.286;20.930;2022-07-17T05:54:34;100808.84;;;28.52;37.93
30724;BME280;17473;52.286;20.930;2022-07-17T05:57:01;100817.81;;;29.31;36.63
30724;BME280;17473;52.286;20.930;2022-07-17T05:59:36;100810.59;;;30.02;35.22
30724;BME280;17473;52.286;20.930;2022-07-17T06:02:03;100818.94;;;30.41;34.96
30724;BME280;17473;52.286;20.930;2022-07-17T06:04:31;100822.59;;;28.74;37.64
30724;BME280;17473;52.286;20.930;2022-07-17T06:06:58;100826.50;;;27.80;39.11
30724;BME280;17473;52.286;20.930;2022-07-17T06:09:25;100825.69;;;26.82;40.92
30724;BME280;17473;52.286;20.930;2022-07-17T06:11:52;100831.41;;;27.36;40.51
30724;BME280;17473;52.286;20.930;2022-07-17T06:14:19;100828.56;;;26.39;41.51
30724;BME280;17473;52.286;20.930;2022-07-17T06:16:47;100828.72;;;25.94;42.61
30724;BME280;17473;52.286;20.930;2022-07-17T06:19:14;100823.81;;;28.37;38.51
30724;BME280;17473;52.286;20.930;2022-07-17T06:21:41;100838.34;;;32.53;31.56
30724;BME280;17473;52.286;20.930;2022-07-17T06:24:08;100839.94;;;31.63;32.84
30724;BME280;17473;52.286;20.930;2022-07-17T06:26:35;100839.25;;;28.90;36.99
30724;BME280;17473;52.286;20.930;2022-07-17T06:29:02;100831.84;;;26.89;40.99
30724;BME280;17473;52.286;20.930;2022-07-17T06:31:29;100837.53;;;26.76;40.86
30724;BME280;17473;52.286;20.930;2022-07-17T06:33:57;100834.63;;;30.79;34.24
30724;BME280;17473;52.286;20.930;2022-07-17T06:36:24;100838.47;;;33.71;29.73
30724;BME280;17473;52.286;20.930;2022-07-17T06:38:51;100849.59;;;33.84;29.31
30724;BME280;17473;52.286;20.930;2022-07-17T06:41:18;100850.72;;;33.64;29.32
30724;BME280;17473;52.286;20.930;2022-07-17T06:43:45;100852.13;;;34.05;28.40
30724;BME280;17473;52.286;20.930;2022-07-17T06:46:12;100845.19;;;34.30;28.66
30724;BME280;17473;52.286;20.930;2022-07-17T06:48:39;100854.13;;;31.11;32.32
30724;BME280;17473;52.286;20.930;2022-07-17T06:51:06;100859.63;;;29.27;35.11
30724;BME280;17473;52.286;20.930;2022-07-17T06:53:33;100868.75;;;27.89;38.08
30724;BME280;17473;52.286;20.930;2022-07-17T06:56:00;100859.63;;;27.91;38.02
30724;BME280;17473;52.286;20.930;2022-07-17T06:58:27;100863.19;;;30.91;33.74
30724;BME280;17473;52.286;20.930;2022-07-17T07:00:54;100871.69;;;30.17;34.52
30724;BME280;17473;52.286;20.930;2022-07-17T07:03:21;100866.09;;;29.50;35.79
30724;BME280;17473;52.286;20.930;2022-07-17T07:05:48;100866.69;;;28.27;37.78
30724;BME280;17473;52.286;20.930;2022-07-17T07:08:16;100866.72;;;27.01;40.11
30724;BME280;17473;52.286;20.930;2022-07-17T07:10:43;100871.22;;;26.28;41.71
30724;BME280;17473;52.286;20.930;2022-07-17T07:13:11;100875.72;;;25.88;42.57
30724;BME280;17473;52.286;20.930;2022-07-17T07:15:39;100868.94;;;27.53;39.99
30724;BME280;17473;52.286;20.930;2022-07-17T07:18:06;100867.88;;;30.87;34.55
30724;BME280;17473;52.286;20.930;2022-07-17T07:20:33;100875.31;;;31.86;32.46
30724;BME280;17473;52.286;20.930;2022-07-17T07:23:00;100875.19;;;30.65;34.61
30724;BME280;17473;52.286;20.930;2022-07-17T07:25:33;100876.94;;;28.74;37.24
30724;BME280;17473;52.286;20.930;2022-07-17T07:28:02;100879.69;;;27.86;38.92
30724;BME280;17473;52.286;20.930;2022-07-17T07:30:29;100866.13;;;27.56;38.66
30724;BME280;17473;52.286;20.930;2022-07-17T07:32:57;100886.84;;;26.54;41.56
30724;BME280;17473;52.286;20.930;2022-07-17T07:35:24;100892.09;;;26.23;42.49
30724;BME280;17473;52.286;20.930;2022-07-17T07:37:51;100892.28;;;26.15;42.75
30724;BME280;17473;52.286;20.930;2022-07-17T07:40:18;100896.19;;;26.00;43.18
30724;BME280;17473;52.286;20.930;2022-07-17T07:42:45;100893.47;;;26.02;43.01
30724;BME280;17473;52.286;20.930;2022-07-17T07:45:12;100901.56;;;26.02;43.56
30724;BME280;17473;52.286;20.930;2022-07-17T07:47:45;100892.34;;;27.55;40.50
30724;BME280;17473;52.286;20.930;2022-07-17T07:50:12;100892.09;;;29.33;37.24
30724;BME280;17473;52.286;20.930;2022-07-17T07:52:40;100898.59;;;29.28;37.46
30724;BME280;17473;52.286;20.930;2022-07-17T07:55:09;100883.69;;;30.79;35.01
30724;BME280;17473;52.286;20.930;2022-07-17T07:57:45;100887.31;;;31.42;34.21
30724;BME280;17473;52.286;20.930;2022-07-17T08:00:13;100892.81;;;32.56;32.01
30724;BME280;17473;52.286;20.930;2022-07-17T08:02:41;100896.78;;;32.31;31.64
30724;BME280;17473;52.286;20.930;2022-07-17T08:05:09;100897.63;;;33.74;30.66
30724;BME280;17473;52.286;20.930;2022-07-17T08:07:37;100903.72;;;33.28;31.12
30724;BME280;17473;52.286;20.930;2022-07-17T08:10:05;100899.31;;;33.43;30.23
30724;BME280;17473;52.286;20.930;2022-07-17T08:12:32;100895.13;;;33.36;30.51
30724;BME280;17473;52.286;20.930;2022-07-17T08:15:17;100902.75;;;33.29;30.31
30724;BME280;17473;52.286;20.930;2022-07-17T08:17:47;100889.69;;;32.08;31.90
30724;BME280;17473;52.286;20.930;2022-07-17T08:20:15;100900.59;;;32.83;30.83
30724;BME280;17473;52.286;20.930;2022-07-17T08:22:44;100898.38;;;33.94;29.35
30724;BME280;17473;52.286;20.930;2022-07-17T08:25:32;100892.97;;;34.72;28.58
30724;BME280;17473;52.286;20.930;2022-07-17T08:28:01;100880.13;;;35.34;26.67
30724;BME280;17473;52.286;20.930;2022-07-17T08:30:28;100895.56;;;34.43;27.62
30724;BME280;17473;52.286;20.930;2022-07-17T08:32:58;100890.91;;;34.13;28.94
30724;BME280;17473;52.286;20.930;2022-07-17T08:35:25;100898.41;;;34.10;28.82
30724;BME280;17473;52.286;20.930;2022-07-17T08:37:53;100889.16;;;33.79;28.78
30724;BME280;17473;52.286;20.930;2022-07-17T08:40:27;100895.03;;;34.37;28.16
30724;BME280;17473;52.286;20.930;2022-07-17T08:42:57;100897.94;;;34.33;27.89
30724;BME280;17473;52.286;20.930;2022-07-17T08:45:25;100897.88;;;34.19;28.03
30724;BME280;17473;52.286;20.930;2022-07-17T08:47:54;100905.13;;;34.20;27.71
30724;BME280;17473;52.286;20.930;2022-07-17T08:50:28;100898.13;;;34.30;27.88
30724;BME280;17473;52.286;20.930;2022-07-17T08:52:57;100892.09;;;34.72;27.44
30724;BME280;17473;52.286;20.930;2022-07-17T08:55:24;100893.72;;;34.60;27.65
30724;BME280;17473;52.286;20.930;2022-07-17T08:57:51;100889.16;;;34.75;27.61
30724;BME280;17473;52.286;20.930;2022-07-17T09:00:21;100895.13;;;34.98;27.24
30724;BME280;17473;52.286;20.930;2022-07-17T09:03:16;100897.09;;;34.79;27.23
30724;BME280;17473;52.286;20.930;2022-07-17T09:05:45;100905.06;;;35.15;26.44
30724;BME280;17473;52.286;20.930;2022-07-17T09:08:20;100903.47;;;35.55;25.88
30724;BME280;17473;52.286;20.930;2022-07-17T09:10:51;100909.91;;;35.25;25.89
30724;BME280;17473;52.286;20.930;2022-07-17T09:16:09;100904.75;;;34.10;26.80
30724;BME280;17473;52.286;20.930;2022-07-17T09:18:50;100903.75;;;34.91;26.10
30724;BME280;17473;52.286;20.930;2022-07-17T09:21:24;100904.72;;;34.74;26.03
30724;BME280;17473;52.286;20.930;2022-07-17T09:24:06;100909.25;;;33.95;26.45
30724;BME280;17473;52.286;20.930;2022-07-17T09:26:35;100920.47;;;33.73;27.86
30724;BME280;17473;52.286;20.930;2022-07-17T09:29:09;100908.56;;;34.08;26.52
30724;BME280;17473;52.286;20.930;2022-07-17T09:31:39;100898.56;;;34.07;26.58
30724;BME280;17473;52.286;20.930;2022-07-17T09:34:17;100908.19;;;34.30;26.94
30724;BME280;17473;52.286;20.930;2022-07-17T09:36:44;100914.75;;;34.27;26.14
30724;BME280;17473;52.286;20.930;2022-07-17T09:39:11;100914.72;;;33.27;26.82
30724;BME280;17473;52.286;20.930;2022-07-17T09:41:38;100911.63;;;33.17;26.16
30724;BME280;17473;52.286;20.930;2022-07-17T09:44:05;100910.66;;;33.35;26.62
30724;BME280;17473;52.286;20.930;2022-07-17T09:46:34;100909.69;;;33.01;26.87
30724;BME280;17473;52.286;20.930;2022-07-17T09:49:07;100912.81;;;33.11;26.96
30724;BME280;17473;52.286;20.930;2022-07-17T09:51:39;100912.75;;;32.58;26.72
30724;BME280;17473;52.286;20.930;2022-07-17T09:54:09;100911.97;;;32.74;26.46
30724;BME280;17473;52.286;20.930;2022-07-17T09:56:39;100916.25;;;32.43;27.42
30724;BME280;17473;52.286;20.930;2022-07-17T09:59:11;100920.63;;;32.28;27.77
30724;BME280;17473;52.286;20.930;2022-07-17T10:01:41;100911.97;;;31.59;27.89
30724;BME280;17473;52.286;20.930;2022-07-17T10:04:10;100916.06;;;31.07;29.03
30724;BME280;17473;52.286;20.930;2022-07-17T10:06:39;100913.97;;;30.71;30.08
30724;BME280;17473;52.286;20.930;2022-07-17T10:09:06;100916.06;;;31.07;29.03
30724;BME280;17473;52.286;20.930;2022-07-17T10:11:38;100919.41;;;31.35;29.19
30724;BME280;17473;52.286;20.930;2022-07-17T10:14:14;100917.72;;;31.12;29.03
30724;BME280;17473;52.286;20.930;2022-07-17T10:16:42;100919.50;;;30.90;30.07
30724;BME280;17473;52.286;20.930;2022-07-17T10:19:21;100914.69;;;30.97;30.15
30724;BME280;17473;52.286;20.930;2022-07-17T10:22:04;100912.81;;;31.20;29.50
30724;BME280;17473;52.286;20.930;2022-07-17T10:24:32;100907.44;;;31.18;29.88
30724;BME280;17473;52.286;20.930;2022-07-17T10:27:25;100919.91;;;30.81;29.30
30724;BME280;17473;52.286;20.930;2022-07-17T10:30:29;100925.31;;;30.60;29.79
30724;BME280;17473;52.286;20.930;2022-07-17T10:33:01;100923.88;;;30.95;29.14
30724;BME280;17473;52.286;20.930;2022-07-17T10:35:45;100915.41;;;30.80;29.40
30724;BME280;17473;52.286;20.930;2022-07-17T10:38:14;100912.31;;;30.67;29.72
30724;BME280;17473;52.286;20.930;2022-07-17T10:40:42;100911.59;;;30.84;30.20
30724;BME280;17473;52.286;20.930;2022-07-17T10:43:09;100903.84;;;30.53;30.24
30724;BME280;17473;52.286;20.930;2022-07-17T10:45:45;100914.50;;;30.13;30.43
30724;BME280;17473;52.286;20.930;2022-07-17T10:48:20;100916.66;;;29.79;31.15
30724;BME280;17473;52.286;20.930;2022-07-17T10:50:54;100919.06;;;29.63;31.41
30724;BME280;17473;52.286;20.930;2022-07-17T10:53:32;100916.88;;;29.49;31.38
30724;BME280;17473;52.286;20.930;2022-07-17T10:56:06;100921.69;;;29.41;32.06
30724;BME280;17473;52.286;20.930;2022-07-17T10:58:40;100907.94;;;29.20;32.08
30724;BME280;17473;52.286;20.930;2022-07-17T11:01:12;100920.69;;;28.92;32.52
30724;BME280;17473;52.286;20.930;2022-07-17T11:03:42;100933.81;;;28.79;32.54
30724;BME280;17473;52.286;20.930;2022-07-17T11:08:50;100924.44;;;28.32;33.41
30724;BME280;17473;52.286;20.930;2022-07-17T11:11:20;100916.66;;;28.20;33.09
30724;BME280;17473;52.286;20.930;2022-07-17T11:14:08;100932.06;;;28.19;33.68
30724;BME280;17473;52.286;20.930;2022-07-17T11:16:35;100925.63;;;28.23;32.93
30724;BME280;17473;52.286;20.930;2022-07-17T11:19:02;100924.78;;;28.21;33.53
30724;BME280;17473;52.286;20.930;2022-07-17T11:21:29;100924.06;;;27.83;34.11
30724;BME280;17473;52.286;20.930;2022-07-17T11:23:57;100930.31;;;27.87;34.12
30724;BME280;17473;52.286;20.930;2022-07-17T11:26:24;100924.75;;;27.91;33.78
30724;BME280;17473;52.286;20.930;2022-07-17T11:28:53;100938.56;;;27.82;33.82
30724;BME280;17473;52.286;20.930;2022-07-17T11:31:27;100934.78;;;27.56;34.35
30724;BME280;17473;52.286;20.930;2022-07-17T11:34:09;100930.78;;;27.37;35.15
30724;BME280;17473;52.286;20.930;2022-07-17T11:36:43;100932.94;;;27.25;34.91
30724;BME280;17473;52.286;20.930;2022-07-17T11:39:17;100928.06;;;27.03;35.32
30724;BME280;17473;52.286;20.930;2022-07-17T11:41:52;100935.91;;;27.14;35.29
30724;BME280;17473;52.286;20.930;2022-07-17T11:44:23;100926.91;;;27.12;35.01
30724;BME280;17473;52.286;20.930;2022-07-17T11:46:51;100940.41;;;27.15;35.00
30724;BME280;17473;52.286;20.930;2022-07-17T11:49:29;100934.66;;;27.28;35.01
30724;BME280;17473;52.286;20.930;2022-07-17T11:51:59;100931.81;;;26.98;35.66
30724;BME280;17473;52.286;20.930;2022-07-17T11:54:26;100925.28;;;27.07;35.73
30724;BME280;17473;52.286;20.930;2022-07-17T11:56:57;100931.97;;;27.26;35.25
30724;BME280;17473;52.286;20.930;2022-07-17T11:59:33;100931.13;;;27.24;35.40
30724;BME280;17473;52.286;20.930;2022-07-17T12:02:15;100924.44;;;27.03;35.49
30724;BME280;17473;52.286;20.930;2022-07-17T12:04:55;100934.25;;;27.09;34.76
30724;BME280;17473;52.286;20.930;2022-07-17T12:07:39;100929.50;;;27.17;34.84
30724;BME280;17473;52.286;20.930;2022-07-17T12:10:18;100918.72;;;27.15;34.88
30724;BME280;17473;52.286;20.930;2022-07-17T12:13:00;100927.22;;;27.34;34.77
30724;BME280;17473;52.286;20.930;2022-07-17T12:15:42;100919.91;;;27.38;34.42
30724;BME280;17473;52.286;20.930;2022-07-17T12:18:25;100925.47;;;27.33;34.23
30724;BME280;17473;52.286;20.930;2022-07-17T12:21:01;100928.19;;;27.32;33.80
30724;BME280;17473;52.286;20.930;2022-07-17T12:23:38;100920.19;;;27.29;33.67
30724;BME280;17473;52.286;20.930;2022-07-17T12:26:15;100920.72;;;27.42;33.31
30724;BME280;17473;52.286;20.930;2022-07-17T12:28:45;100910.41;;;27.22;34.23
30724;BME280;17473;52.286;20.930;2022-07-17T12:31:12;100913.03;;;27.25;33.99
30724;BME280;17473;52.286;20.930;2022-07-17T12:33:41;100914.34;;;27.44;32.92
30724;BME280;17473;52.286;20.930;2022-07-17T12:36:08;100917.00;;;27.47;33.16
30724;BME280;17473;52.286;20.930;2022-07-17T12:38:37;100925.19;;;27.44;32.74
30724;BME280;17473;52.286;20.930;2022-07-17T12:41:04;100918.16;;;27.36;32.74
30724;BME280;17473;52.286;20.930;2022-07-17T12:43:31;100918.16;;;27.36;32.79
30724;BME280;17473;52.286;20.930;2022-07-17T12:45:58;100925.59;;;27.29;32.55
30724;BME280;17473;52.286;20.930;2022-07-17T12:48:38;100907.56;;;27.28;32.22
30724;BME280;17473;52.286;20.930;2022-07-17T12:51:13;100919.91;;;27.38;32.24
30724;BME280;17473;52.286;20.930;2022-07-17T12:53:44;100915.03;;;27.53;32.12
30724;BME280;17473;52.286;20.930;2022-07-17T12:56:11;100921.72;;;27.38;32.50
30724;BME280;17473;52.286;20.930;2022-07-17T12:58:38;100928.84;;;27.43;32.15